createdAt,value
2024-02-24T00:00:11.798Z,3.70
2024-02-24T00:02:16.914Z,3.40
2024-02-24T00:04:21.196Z,3.65
2024-02-24T00:06:23.436Z,3.67
2024-02-24T00:08:26.647Z,3.50
2024-02-24T00:10:30.222Z,3.70
2024-02-24T00:12:34.875Z,3.38
2024-02-24T00:14:38.846Z,3.28
2024-02-24T00:16:43.208Z,3.03
2024-02-24T00:18:46.404Z,3.05
2024-02-24T00:20:49.586Z,3.03
2024-02-24T00:22:51.815Z,3.45
2024-02-24T00:24:54.971Z,3.55
2024-02-24T00:26:58.169Z,3.50
2024-02-24T00:29:03.343Z,3.00
2024-02-24T00:31:06.633Z,3.58
2024-02-24T00:33:10.013Z,3.20
2024-02-24T00:35:13.325Z,3.20
2024-02-24T00:37:16.621Z,3.30
2024-02-24T00:39:18.821Z,3.30
2024-02-24T00:41:21.954Z,3.13
2024-02-24T00:43:25.099Z,3.17
2024-02-24T00:45:29.757Z,3.15
2024-02-24T00:47:33.417Z,3.03
2024-02-24T00:49:36.630Z,2.97
2024-02-24T00:51:39.748Z,3.30
2024-02-24T00:53:42.963Z,3.00
2024-02-24T00:55:46.240Z,3.80
2024-02-24T00:57:51.650Z,3.50
2024-02-24T00:59:54.913Z,3.75
2024-02-24T01:01:59.481Z,4.00
2024-02-24T01:04:01.753Z,3.42
2024-02-24T01:06:05.281Z,3.97
2024-02-24T01:08:08.584Z,4.30
2024-02-24T01:10:15.027Z,4.05
2024-02-24T01:12:18.368Z,3.50
2024-02-24T01:14:22.083Z,3.47
2024-02-24T01:16:25.423Z,3.95
2024-02-24T01:18:30.120Z,3.83
2024-02-24T01:20:33.411Z,3.25
2024-02-24T01:22:36.667Z,3.55
2024-02-24T01:24:40.003Z,3.58
2024-02-24T01:26:43.773Z,3.80
2024-02-24T01:28:49.565Z,3.25
2024-02-24T01:30:52.664Z,3.10
2024-02-24T01:32:55.040Z,3.35
2024-02-24T01:35:00.571Z,3.30
2024-02-24T01:37:03.724Z,3.13
2024-02-24T01:39:06.216Z,3.92
2024-02-24T01:41:09.364Z,3.10
2024-02-24T01:43:26.109Z,4.38
2024-02-24T01:45:29.241Z,3.90
2024-02-24T01:47:32.557Z,3.30
2024-02-24T01:49:35.909Z,3.40
2024-02-24T01:51:41.092Z,3.63
2024-02-24T01:53:44.735Z,3.28
2024-02-24T01:55:48.362Z,3.20
2024-02-24T01:57:51.761Z,3.92
2024-02-24T01:59:56.155Z,3.00
2024-02-24T02:01:59.298Z,3.60
2024-02-24T02:04:01.362Z,2.85
2024-02-24T02:06:05.531Z,3.30
2024-02-24T02:08:10.256Z,3.25
2024-02-24T02:10:13.496Z,3.22
2024-02-24T02:12:16.854Z,3.10
2024-02-24T02:14:20.064Z,3.20
2024-02-24T02:16:23.316Z,3.50
2024-02-24T02:18:25.674Z,3.30
2024-02-24T02:20:28.938Z,3.40
2024-02-24T02:22:34.085Z,3.65
2024-02-24T02:24:37.739Z,3.55
2024-02-24T02:26:40.898Z,3.10
2024-02-24T02:28:44.074Z,3.00
2024-02-24T02:30:46.649Z,3.35
2024-02-24T02:32:50.195Z,2.70
2024-02-24T02:34:52.903Z,3.38
2024-02-24T02:36:56.000Z,3.63
2024-02-24T02:39:00.492Z,3.00
2024-02-24T02:41:03.763Z,3.10
2024-02-24T02:43:07.317Z,3.10
2024-02-24T02:45:10.603Z,2.83
2024-02-24T02:47:19.733Z,3.45
2024-02-24T02:49:26.829Z,2.88
2024-02-24T02:51:30.064Z,3.20
2024-02-24T02:53:33.184Z,3.40
2024-02-24T02:55:38.624Z,2.85
2024-02-24T02:57:42.203Z,3.30
2024-02-24T02:59:44.371Z,3.10
2024-02-24T03:01:52.855Z,2.92
2024-02-24T03:03:56.102Z,3.13
2024-02-24T03:05:59.421Z,3.08
2024-02-24T03:08:03.165Z,2.85
2024-02-24T03:10:07.408Z,2.90
2024-02-24T03:12:12.628Z,3.20
2024-02-24T03:14:14.996Z,3.17
2024-02-24T03:16:19.439Z,3.50
2024-02-24T03:18:22.870Z,3.13
2024-02-24T03:20:26.078Z,3.00
2024-02-24T03:22:29.507Z,3.50
2024-02-24T03:24:31.666Z,3.38
2024-02-24T03:26:35.403Z,3.38
2024-02-24T03:28:42.092Z,2.95
2024-02-24T03:30:44.207Z,3.08
2024-02-24T03:32:47.486Z,3.00
2024-02-24T03:34:50.865Z,2.95
2024-02-24T03:36:54.898Z,3.10
2024-02-24T03:38:58.091Z,3.30
2024-02-24T03:41:00.386Z,3.28
2024-02-24T03:43:03.519Z,2.88
2024-02-24T03:45:09.523Z,3.55
2024-02-24T03:47:12.729Z,3.10
2024-02-24T03:49:15.990Z,3.65
2024-02-24T03:51:19.304Z,3.85
2024-02-24T03:53:22.723Z,3.65
2024-02-24T03:55:25.948Z,3.53
2024-02-24T03:57:29.674Z,3.70
2024-02-24T03:59:32.908Z,3.17
2024-02-24T04:01:37.421Z,3.40
2024-02-24T04:03:39.564Z,2.90
2024-02-24T04:05:42.909Z,3.10
2024-02-24T04:07:46.370Z,2.80
2024-02-24T04:09:49.620Z,2.60
2024-02-24T04:11:54.000Z,3.15
2024-02-24T04:13:57.469Z,2.88
2024-02-24T04:16:01.037Z,2.65
2024-02-24T04:18:06.430Z,2.30
2024-02-24T04:20:11.376Z,2.78
2024-02-24T04:22:15.282Z,2.65
2024-02-24T04:24:18.337Z,2.88
2024-02-24T04:26:21.809Z,2.45
2024-02-24T04:28:25.216Z,3.03
2024-02-24T04:30:28.800Z,2.60
2024-02-24T04:32:32.155Z,2.70
2024-02-24T04:34:39.159Z,2.90
2024-02-24T04:36:43.408Z,2.40
2024-02-24T04:38:46.557Z,2.78
2024-02-24T04:40:50.102Z,2.85
2024-02-24T04:42:53.306Z,2.75
2024-02-24T04:44:56.421Z,2.55
2024-02-24T04:46:59.746Z,2.90
2024-02-24T04:49:02.967Z,3.15
2024-02-24T04:51:07.658Z,3.22
2024-02-24T04:53:11.253Z,2.58
2024-02-24T04:55:13.481Z,2.70
2024-02-24T04:57:16.611Z,2.85
2024-02-24T04:59:19.897Z,2.67
2024-02-24T05:01:23.190Z,2.70
2024-02-24T05:03:26.408Z,2.90
2024-02-24T05:05:28.755Z,2.35
2024-02-24T05:07:33.985Z,2.60
2024-02-24T05:09:37.160Z,2.60
2024-02-24T05:11:41.180Z,2.95
2024-02-24T05:13:44.602Z,2.95
2024-02-24T05:15:47.778Z,2.85
2024-02-24T05:17:51.445Z,2.70
2024-02-24T05:19:54.926Z,3.25
2024-02-24T05:21:58.211Z,2.45
2024-02-24T05:24:02.918Z,3.17
2024-02-24T05:26:05.169Z,3.35
2024-02-24T05:28:08.353Z,2.42
2024-02-24T05:30:11.034Z,3.40
2024-02-24T05:32:15.294Z,3.03
2024-02-24T05:34:18.513Z,2.63
2024-02-24T05:36:21.775Z,3.00
2024-02-24T05:38:24.896Z,3.40
2024-02-24T05:40:29.852Z,2.72
2024-02-24T05:42:32.997Z,3.25
2024-02-24T05:44:36.498Z,2.67
2024-02-24T05:46:39.990Z,3.00
2024-02-24T05:48:43.275Z,2.88
2024-02-24T05:50:46.533Z,2.63
2024-02-24T05:52:49.646Z,3.92
2024-02-24T05:54:53.911Z,2.65
2024-02-24T05:56:58.508Z,3.40
2024-02-24T05:59:02.571Z,3.20
2024-02-24T06:01:06.230Z,3.70
2024-02-24T06:03:11.447Z,3.72
2024-02-24T06:05:14.793Z,2.70
2024-02-24T06:07:22.381Z,2.40
2024-02-24T06:09:25.990Z,2.28
2024-02-24T06:11:29.273Z,2.55
2024-02-24T06:13:33.761Z,3.20
2024-02-24T06:15:37.177Z,3.40
2024-02-24T06:17:40.718Z,3.33
2024-02-24T06:19:43.904Z,3.63
2024-02-24T06:21:46.209Z,3.50
2024-02-24T06:23:49.559Z,3.08
2024-02-24T06:25:52.721Z,3.55
2024-02-24T06:27:56.316Z,3.03
2024-02-24T06:30:00.905Z,2.55
2024-02-24T06:32:04.528Z,2.63
2024-02-24T06:34:08.926Z,3.08
2024-02-24T06:36:12.324Z,2.80
2024-02-24T06:38:15.459Z,3.20
2024-02-24T06:40:26.002Z,2.92
2024-02-24T06:42:36.400Z,3.42
2024-02-24T06:44:40.535Z,3.22
2024-02-24T06:46:45.037Z,3.35
2024-02-24T06:48:48.300Z,3.40
2024-02-24T06:50:51.651Z,3.10
2024-02-24T06:52:55.985Z,2.10
2024-02-24T06:54:58.293Z,2.30
2024-02-24T06:57:01.838Z,2.10
2024-02-24T06:59:07.743Z,2.47
2024-02-24T07:01:11.225Z,1.98
2024-02-24T07:03:16.258Z,2.20
2024-02-24T07:05:19.858Z,2.10
2024-02-24T07:07:23.554Z,1.92
2024-02-24T07:09:26.727Z,2.20
2024-02-24T07:11:30.170Z,1.70
2024-02-24T07:13:33.569Z,2.28
2024-02-24T07:15:36.870Z,1.92
2024-02-24T07:17:40.295Z,1.63
2024-02-24T07:19:44.958Z,1.30
2024-02-24T07:21:48.092Z,1.38
2024-02-24T07:23:53.272Z,1.80
2024-02-24T07:25:56.777Z,1.40
2024-02-24T07:28:00.029Z,1.50
2024-02-24T07:30:03.390Z,1.80
2024-02-24T07:32:07.630Z,1.42
2024-02-24T07:34:11.941Z,1.50
2024-02-24T07:36:17.260Z,1.45
2024-02-24T07:38:21.366Z,1.40
2024-02-24T07:40:24.584Z,1.15
2024-02-24T07:42:27.752Z,1.20
2024-02-24T07:44:30.970Z,1.30
2024-02-24T07:46:34.182Z,1.25
2024-02-24T07:48:38.564Z,1.15
2024-02-24T07:50:41.764Z,1.40
2024-02-24T07:52:47.835Z,1.40
2024-02-24T07:54:50.461Z,1.23
2024-02-24T07:56:53.884Z,1.90
2024-02-24T07:58:57.166Z,1.10
2024-02-24T08:01:00.339Z,1.05
2024-02-24T08:03:03.604Z,0.90
2024-02-24T08:05:07.201Z,0.90
2024-02-24T08:07:10.378Z,0.70
2024-02-24T08:09:15.010Z,0.85
2024-02-24T08:11:18.310Z,0.80
2024-02-24T08:13:22.314Z,0.80
2024-02-24T08:15:25.618Z,0.82
2024-02-24T08:17:29.053Z,1.55
2024-02-24T08:19:35.101Z,2.25
2024-02-24T08:21:39.538Z,1.30
2024-02-24T08:23:43.271Z,0.80
2024-02-24T08:25:47.852Z,1.40
2024-02-24T08:27:51.831Z,1.65
2024-02-24T08:29:55.407Z,1.00
2024-02-24T08:31:58.763Z,0.70
2024-02-24T08:34:01.981Z,0.80
2024-02-24T08:36:06.639Z,0.73
2024-02-24T08:38:08.978Z,0.70
2024-02-24T08:40:13.360Z,0.65
2024-02-24T08:42:18.230Z,0.70
2024-02-24T08:44:21.526Z,0.80
2024-02-24T08:46:24.672Z,0.70
2024-02-24T08:48:28.195Z,0.80
2024-02-24T08:50:31.670Z,1.27
2024-02-24T08:52:42.907Z,0.70
2024-02-24T08:54:50.105Z,0.70
2024-02-24T08:56:54.165Z,0.80
2024-02-24T08:58:59.361Z,0.60
2024-02-24T09:01:03.511Z,0.65
2024-02-24T09:03:06.949Z,0.60
2024-02-24T09:05:09.363Z,0.50
2024-02-24T09:07:12.834Z,0.70
2024-02-24T09:09:16.150Z,0.60
2024-02-24T09:11:19.733Z,0.80
2024-02-24T09:13:23.165Z,0.40
2024-02-24T09:15:30.211Z,0.60
2024-02-24T09:17:35.452Z,0.60
2024-02-24T09:19:38.773Z,1.13
2024-02-24T09:21:45.858Z,0.80
2024-02-24T09:23:49.178Z,0.60
2024-02-24T09:25:52.436Z,0.43
2024-02-24T09:27:55.570Z,0.60
2024-02-24T09:29:59.488Z,0.40
2024-02-24T09:32:03.737Z,0.60
2024-02-24T09:34:09.012Z,0.70
2024-02-24T09:36:14.324Z,0.50
2024-02-24T09:38:17.566Z,0.50
2024-02-24T09:40:20.844Z,0.70
2024-02-24T09:42:28.023Z,0.63
2024-02-24T09:44:31.825Z,0.77
2024-02-24T09:46:37.793Z,1.43
2024-02-24T09:48:43.611Z,0.50
2024-02-24T09:50:47.246Z,0.70
2024-02-24T09:52:51.002Z,0.77
2024-02-24T09:54:54.394Z,1.83
2024-02-24T09:56:58.820Z,2.33
2024-02-24T09:59:02.820Z,0.70
2024-02-24T10:01:06.284Z,0.60
2024-02-24T10:03:11.499Z,0.53
2024-02-24T10:05:18.821Z,0.60
2024-02-24T10:07:22.308Z,0.90
2024-02-24T10:09:26.045Z,0.60
2024-02-24T10:11:29.785Z,0.50
2024-02-24T10:13:33.752Z,0.67
2024-02-24T10:15:37.784Z,0.57
2024-02-24T10:17:41.244Z,0.90
2024-02-24T10:19:44.655Z,0.57
2024-02-24T10:21:49.223Z,0.60
2024-02-24T10:23:52.482Z,0.50
2024-02-24T10:25:58.674Z,0.65
2024-02-24T10:28:02.496Z,0.60
2024-02-24T10:30:07.228Z,0.70
2024-02-24T10:32:11.348Z,0.70
2024-02-24T10:34:14.273Z,0.50
2024-02-24T10:36:17.668Z,0.60
2024-02-24T10:38:34.222Z,0.70
2024-02-24T10:40:43.009Z,0.67
2024-02-24T10:42:47.197Z,1.23
2024-02-24T10:44:52.404Z,0.70
2024-02-24T10:46:54.620Z,0.63
2024-02-24T10:48:58.428Z,0.67
2024-02-24T10:51:01.916Z,0.57
2024-02-24T10:53:06.743Z,1.10
2024-02-24T10:55:12.392Z,0.67
2024-02-24T10:57:16.796Z,0.90
2024-02-24T10:59:27.845Z,0.70
2024-02-24T11:01:31.395Z,0.70
2024-02-24T11:03:34.918Z,0.80
2024-02-24T11:05:38.305Z,0.70
2024-02-24T11:07:43.496Z,0.90
2024-02-24T11:09:50.292Z,0.57
2024-02-24T11:12:04.378Z,0.70
2024-02-24T11:16:15.113Z,1.00
2024-02-24T11:18:18.370Z,1.33
2024-02-24T11:20:55.269Z,0.80
2024-02-24T11:23:18.717Z,0.70
2024-02-24T11:25:22.503Z,0.70
2024-02-24T11:27:31.681Z,0.80
2024-02-24T11:29:37.520Z,0.70
2024-02-24T11:31:43.474Z,2.77
2024-02-24T11:33:47.104Z,1.00
2024-02-24T11:35:51.315Z,0.50
2024-02-24T11:37:55.319Z,0.80
2024-02-24T11:39:58.935Z,0.70
2024-02-24T11:42:02.864Z,0.77
2024-02-24T11:44:06.664Z,0.80
2024-02-24T11:46:09.905Z,0.70
2024-02-24T11:48:13.207Z,0.80
2024-02-24T11:50:16.689Z,0.60
2024-02-24T11:52:22.410Z,0.70
2024-02-24T11:54:25.680Z,0.70
2024-02-24T11:56:29.375Z,0.63
2024-02-24T11:58:32.586Z,0.70
2024-02-24T12:00:37.613Z,0.77
2024-02-24T12:02:40.979Z,0.70
2024-02-24T12:04:44.290Z,0.63
2024-02-24T12:06:48.954Z,0.80
2024-02-24T12:08:53.235Z,0.70
2024-02-24T12:10:56.622Z,0.60
2024-02-24T12:13:00.344Z,1.00
2024-02-24T12:15:05.431Z,0.83
2024-02-24T12:17:13.244Z,0.80
2024-02-24T12:19:17.191Z,0.50
2024-02-24T12:21:20.971Z,0.70
2024-02-24T12:23:23.891Z,0.70
2024-02-24T12:25:28.818Z,0.70
2024-02-24T12:27:32.941Z,0.67
2024-02-24T12:29:36.201Z,0.60
2024-02-24T12:31:39.570Z,0.80
2024-02-24T12:33:46.214Z,0.67
2024-02-24T12:35:49.619Z,0.73
2024-02-24T12:37:54.216Z,0.70
2024-02-24T12:39:57.376Z,0.77
2024-02-24T12:42:02.430Z,0.57
2024-02-24T12:44:07.349Z,0.50
2024-02-24T12:46:10.087Z,1.30
2024-02-24T12:48:13.571Z,0.50
2024-02-24T12:50:18.555Z,0.50
2024-02-24T12:52:22.034Z,0.40
2024-02-24T12:54:25.761Z,0.60
2024-02-24T12:56:28.170Z,0.50
2024-02-24T12:58:31.527Z,0.50
2024-02-24T13:00:34.976Z,1.30
2024-02-24T13:02:38.846Z,1.20
2024-02-24T13:04:42.251Z,0.80
2024-02-24T13:06:47.358Z,0.90
2024-02-24T13:08:50.997Z,0.53
2024-02-24T13:10:54.951Z,0.77
2024-02-24T13:12:58.791Z,0.60
2024-02-24T13:15:03.804Z,0.67
2024-02-24T13:17:06.712Z,0.50
2024-02-24T13:19:10.149Z,0.50
2024-02-24T13:21:12.456Z,0.50
2024-02-24T13:23:18.513Z,1.50
2024-02-24T13:25:23.511Z,0.60
2024-02-24T13:27:26.686Z,0.70
2024-02-24T13:29:30.376Z,0.63
2024-02-24T13:31:33.569Z,0.60
2024-02-24T13:33:36.934Z,1.00
2024-02-24T13:35:40.145Z,0.60
2024-02-24T13:37:43.650Z,0.50
2024-02-24T13:39:48.819Z,0.63
2024-02-24T13:41:52.664Z,0.90
2024-02-24T13:43:56.503Z,0.70
2024-02-24T13:45:59.705Z,0.80
2024-02-24T13:48:02.806Z,0.80
2024-02-24T13:50:06.810Z,0.60
2024-02-24T13:52:10.462Z,0.57
2024-02-24T13:54:13.722Z,0.50
2024-02-24T13:56:18.665Z,0.60
2024-02-24T13:58:21.988Z,0.70
2024-02-24T14:00:25.119Z,0.60
2024-02-24T14:02:30.109Z,1.93
2024-02-24T14:04:33.461Z,0.90
2024-02-24T14:06:37.915Z,0.67
2024-02-24T14:08:41.833Z,0.60
2024-02-24T14:10:45.134Z,0.77
2024-02-24T14:12:49.741Z,0.70
2024-02-24T14:14:53.025Z,0.63
2024-02-24T14:16:56.335Z,0.90
2024-02-24T14:18:58.790Z,1.50
2024-02-24T14:21:02.134Z,0.50
2024-02-24T14:23:05.806Z,0.63
2024-02-24T14:25:09.816Z,1.00
2024-02-24T14:27:12.924Z,0.70
2024-02-24T14:29:17.571Z,0.70
2024-02-24T14:31:21.012Z,0.67
2024-02-24T14:33:23.978Z,0.70
2024-02-24T14:35:27.395Z,0.70
2024-02-24T14:37:30.714Z,0.80
2024-02-24T14:39:34.744Z,0.50
2024-02-24T14:41:37.957Z,0.80
2024-02-24T14:43:41.667Z,0.80
2024-02-24T14:45:46.373Z,0.63
2024-02-24T14:47:49.823Z,0.70
2024-02-24T14:49:53.718Z,1.73
2024-02-24T14:51:56.906Z,3.47
2024-02-24T14:54:00.536Z,0.80
2024-02-24T14:56:05.119Z,0.80
2024-02-24T14:58:08.385Z,0.80
2024-02-24T15:00:14.295Z,0.90
2024-02-24T15:02:30.275Z,0.80
2024-02-24T15:04:42.264Z,0.93
2024-02-24T15:06:48.171Z,0.70
2024-02-24T15:08:51.505Z,2.00
2024-02-24T15:10:54.773Z,0.90
2024-02-24T15:12:58.058Z,0.80
2024-02-24T15:15:01.381Z,0.90
2024-02-24T15:17:04.706Z,0.83
2024-02-24T15:19:09.436Z,1.07
2024-02-24T15:21:13.483Z,1.00
2024-02-24T15:23:16.677Z,1.83
2024-02-24T15:25:19.678Z,2.00
2024-02-24T15:27:25.706Z,2.47
2024-02-24T15:29:29.164Z,1.40
2024-02-24T15:31:34.565Z,1.10
2024-02-24T15:33:38.639Z,1.07
2024-02-24T15:35:43.466Z,1.00
2024-02-24T15:37:46.805Z,1.43
2024-02-24T15:39:50.200Z,0.70
2024-02-24T15:41:53.727Z,0.90
2024-02-24T15:43:57.060Z,0.97
2024-02-24T15:46:02.053Z,0.83
2024-02-24T15:48:06.018Z,0.63
2024-02-24T15:50:10.823Z,0.70
2024-02-24T15:52:15.609Z,1.50
2024-02-24T15:54:19.032Z,2.40
2024-02-24T15:56:22.579Z,0.67
2024-02-24T15:58:25.866Z,0.70
2024-02-24T16:00:29.197Z,0.70
2024-02-24T16:02:33.184Z,2.60
2024-02-24T16:04:37.534Z,1.27
2024-02-24T16:06:39.989Z,1.70
2024-02-24T16:08:44.989Z,0.70
2024-02-24T16:10:49.926Z,0.60
2024-02-24T16:12:55.707Z,0.60
2024-02-24T16:14:59.162Z,0.70
2024-02-24T16:17:04.452Z,0.60
2024-02-24T16:19:09.850Z,0.63
2024-02-24T16:21:14.766Z,0.90
2024-02-24T16:23:19.543Z,0.70
2024-02-24T16:25:24.394Z,0.73
2024-02-24T16:27:27.660Z,0.87
2024-02-24T16:29:31.551Z,0.90
2024-02-24T16:31:34.922Z,1.00
2024-02-24T16:33:39.290Z,0.60
2024-02-24T16:35:46.179Z,0.70
2024-02-24T16:37:52.368Z,0.70
2024-02-24T16:39:57.062Z,0.73
2024-02-24T16:42:02.408Z,0.68
2024-02-24T16:44:09.323Z,0.60
2024-02-24T16:46:14.588Z,0.67
2024-02-24T16:48:18.289Z,0.70
2024-02-24T16:50:24.505Z,0.60
2024-02-24T16:52:26.973Z,0.53
2024-02-24T16:54:30.303Z,0.60
2024-02-24T16:56:34.034Z,0.50
2024-02-24T16:58:38.790Z,0.70
2024-02-24T17:00:42.146Z,0.60
2024-02-24T17:02:48.312Z,0.50
2024-02-24T17:04:52.127Z,0.70
2024-02-24T17:06:58.686Z,0.70
2024-02-24T17:09:03.755Z,0.70
2024-02-24T17:11:07.238Z,0.73
2024-02-24T17:13:11.199Z,0.40
2024-02-24T17:15:16.037Z,0.70
2024-02-24T17:17:19.433Z,0.65
2024-02-24T17:19:23.110Z,0.80
2024-02-24T17:21:28.661Z,0.73
2024-02-24T17:23:33.432Z,0.70
2024-02-24T17:25:36.741Z,0.80
2024-02-24T17:27:40.662Z,1.00
2024-02-24T17:29:44.284Z,0.70
2024-02-24T17:31:48.966Z,0.90
2024-02-24T17:33:53.405Z,1.00
2024-02-24T17:35:55.887Z,1.00
2024-02-24T17:38:02.665Z,0.95
2024-02-24T17:40:07.721Z,1.00
2024-02-24T17:42:12.314Z,1.25
2024-02-24T17:44:15.526Z,0.95
2024-02-24T17:46:18.205Z,1.20
2024-02-24T17:48:23.609Z,0.93
2024-02-24T17:50:26.937Z,0.90
2024-02-24T17:52:30.288Z,1.10
2024-02-24T17:54:33.714Z,0.90
2024-02-24T17:56:39.916Z,0.80
2024-02-24T17:58:47.618Z,0.93
2024-02-24T18:00:51.359Z,0.93
2024-02-24T18:02:53.789Z,0.93
2024-02-24T18:05:00.699Z,5.88
2024-02-24T18:07:04.655Z,4.85
2024-02-24T18:09:08.405Z,1.50
2024-02-24T18:11:11.728Z,1.00
2024-02-24T18:13:15.056Z,0.90
2024-02-24T18:15:18.468Z,0.90
2024-02-24T18:17:22.205Z,0.85
2024-02-24T18:19:25.695Z,0.90
2024-02-24T18:21:29.476Z,0.98
2024-02-24T18:23:33.219Z,0.60
2024-02-24T18:25:37.017Z,1.10
2024-02-24T18:27:40.350Z,0.75
2024-02-24T18:29:45.487Z,0.90
2024-02-24T18:31:48.760Z,1.13
2024-02-24T18:33:52.289Z,0.70
2024-02-24T18:35:58.034Z,0.90
2024-02-24T18:38:02.766Z,1.00
2024-02-24T18:40:07.175Z,0.90
2024-02-24T18:42:10.619Z,0.70
2024-02-24T18:44:16.070Z,0.63
2024-02-24T18:46:22.611Z,0.90
2024-02-24T18:48:26.106Z,1.05
2024-02-24T18:50:29.535Z,0.85
2024-02-24T18:52:32.929Z,0.90
2024-02-24T18:54:37.836Z,0.77
2024-02-24T18:56:41.228Z,0.85
2024-02-24T18:58:47.574Z,0.73
2024-02-24T19:00:51.079Z,0.80
2024-02-24T19:02:54.445Z,0.90
2024-02-24T19:04:58.270Z,0.70
2024-02-24T19:07:01.704Z,1.20
2024-02-24T19:09:05.274Z,0.90
2024-02-24T19:11:11.884Z,0.80
2024-02-24T19:13:15.189Z,0.82
2024-02-24T19:15:19.976Z,0.98
2024-02-24T19:17:22.647Z,0.70
2024-02-24T19:19:28.917Z,0.90
2024-02-24T19:21:31.108Z,1.00
2024-02-24T19:23:35.014Z,0.90
2024-02-24T19:25:38.427Z,0.95
2024-02-24T19:27:43.118Z,0.80
2024-02-24T19:29:46.760Z,0.90
2024-02-24T19:31:50.209Z,0.90
2024-02-24T19:33:56.510Z,0.80
2024-02-24T19:36:00.660Z,1.30
2024-02-24T19:38:04.522Z,1.10
2024-02-24T19:40:10.366Z,0.93
2024-02-24T19:42:13.742Z,1.30
2024-02-24T19:44:18.785Z,1.33
2024-02-24T19:46:21.716Z,1.40
2024-02-24T19:48:25.849Z,1.40
2024-02-24T19:50:29.548Z,1.40
2024-02-24T19:52:32.850Z,1.45
2024-02-24T19:54:36.830Z,2.08
2024-02-24T19:56:40.128Z,1.90
2024-02-24T19:58:51.646Z,1.70
2024-02-24T20:01:01.081Z,1.58
2024-02-24T20:03:05.250Z,1.30
2024-02-24T20:05:10.941Z,1.35
2024-02-24T20:07:15.123Z,1.35
2024-02-24T20:09:18.931Z,1.58
2024-02-24T20:11:22.324Z,1.20
2024-02-24T20:13:25.560Z,1.10
2024-02-24T20:15:28.810Z,1.02
2024-02-24T20:17:33.558Z,1.20
2024-02-24T20:19:36.947Z,1.15
2024-02-24T20:21:40.148Z,1.15
2024-02-24T20:23:43.880Z,1.17
2024-02-24T20:25:52.207Z,1.08
2024-02-24T20:27:55.567Z,1.48
2024-02-24T20:29:59.349Z,1.00
2024-02-24T20:32:02.536Z,1.00
2024-02-24T20:34:08.775Z,1.23
2024-02-24T20:36:12.759Z,1.13
2024-02-24T20:38:16.062Z,0.90
2024-02-24T20:40:18.471Z,1.20
2024-02-24T20:42:22.144Z,1.10
2024-02-24T20:44:25.478Z,1.10
2024-02-24T20:46:28.697Z,1.20
2024-02-24T20:48:32.245Z,1.50
2024-02-24T20:50:37.377Z,1.35
2024-02-24T20:52:41.321Z,1.00
2024-02-24T20:54:46.871Z,1.73
2024-02-24T20:56:49.289Z,1.58
2024-02-24T20:58:52.937Z,1.50
2024-02-24T21:00:56.247Z,1.17
2024-02-24T21:02:59.604Z,0.98
2024-02-24T21:05:01.769Z,1.40
2024-02-24T21:07:06.498Z,1.10
2024-02-24T21:09:08.788Z,1.25
2024-02-24T21:11:12.014Z,1.52
2024-02-24T21:13:15.151Z,1.45
2024-02-24T21:15:18.505Z,1.55
2024-02-24T21:17:20.749Z,1.48
2024-02-24T21:19:24.792Z,1.67
2024-02-24T21:21:27.906Z,1.50
2024-02-24T21:23:33.219Z,1.48
2024-02-24T21:25:36.467Z,1.40
2024-02-24T21:27:39.649Z,1.27
2024-02-24T21:29:42.787Z,1.30
2024-02-24T21:31:46.005Z,1.50
2024-02-24T21:33:51.995Z,1.42
2024-02-24T21:35:55.239Z,2.28
2024-02-24T21:37:58.376Z,1.50
2024-02-24T21:40:03.532Z,1.60
2024-02-24T21:42:08.499Z,2.30
2024-02-24T21:44:12.339Z,7.18
2024-02-24T21:46:17.098Z,14.73
2024-02-24T21:48:22.452Z,15.15
2024-02-24T21:50:25.975Z,5.82
2024-02-24T21:52:29.600Z,4.25
2024-02-24T21:54:32.208Z,3.60
2024-02-24T21:56:37.017Z,3.75
2024-02-24T21:58:40.303Z,4.25
2024-02-24T22:00:44.254Z,4.30
2024-02-24T22:02:48.221Z,4.50
2024-02-24T22:04:51.393Z,3.95
2024-02-24T22:06:55.230Z,5.10
2024-02-24T22:08:58.975Z,5.28
2024-02-24T22:11:02.647Z,5.07
2024-02-24T22:13:08.873Z,5.80
2024-02-24T22:15:14.184Z,5.80
2024-02-24T22:17:19.612Z,6.10
2024-02-24T22:19:23.384Z,6.10
2024-02-24T22:21:27.753Z,5.82
2024-02-24T22:23:30.994Z,5.57
2024-02-24T22:25:34.316Z,5.15
2024-02-24T22:27:38.518Z,4.88
2024-02-24T22:29:43.767Z,5.22
2024-02-24T22:31:48.052Z,5.50
2024-02-24T22:33:51.695Z,5.00
2024-02-24T22:35:55.793Z,5.68
2024-02-24T22:37:59.132Z,5.68
2024-02-24T22:40:03.897Z,9.10
2024-02-24T22:42:07.322Z,8.25
2024-02-24T22:44:10.771Z,7.55
2024-02-24T22:46:15.436Z,5.43
2024-02-24T22:48:18.959Z,5.40
2024-02-24T22:50:22.596Z,5.47
2024-02-24T22:52:25.998Z,4.70
2024-02-24T22:54:28.322Z,5.10
2024-02-24T22:56:32.081Z,5.07
2024-02-24T22:58:35.743Z,5.68
2024-02-24T23:00:39.325Z,5.20
2024-02-24T23:02:45.356Z,5.43
2024-02-24T23:04:48.025Z,5.47
2024-02-24T23:06:51.738Z,5.38
2024-02-24T23:08:56.944Z,5.50
2024-02-24T23:11:01.531Z,4.85
2024-02-24T23:13:05.558Z,5.18
2024-02-24T23:15:10.839Z,4.53
2024-02-24T23:17:14.773Z,4.75
2024-02-24T23:19:21.181Z,4.65
2024-02-24T23:21:26.549Z,5.28
2024-02-24T23:23:29.848Z,4.70
2024-02-24T23:25:33.152Z,4.55
2024-02-24T23:27:35.614Z,5.22
2024-02-24T23:29:38.931Z,4.70
2024-02-24T23:31:42.074Z,4.75
2024-02-24T23:33:45.594Z,5.30
2024-02-24T23:35:50.322Z,4.60
2024-02-24T23:37:53.559Z,4.15
2024-02-24T23:39:56.825Z,4.50
2024-02-24T23:42:00.140Z,4.20
2024-02-24T23:44:03.386Z,4.43
2024-02-24T23:46:06.730Z,4.00
2024-02-24T23:48:10.023Z,4.03
2024-02-24T23:50:13.237Z,3.80
2024-02-24T23:52:17.813Z,3.28
2024-02-24T23:54:20.984Z,3.95
2024-02-24T23:56:25.152Z,4.00
2024-02-24T23:58:28.747Z,4.00
